createdAt,value
2024-01-09T00:01:07.404Z,15.88
2024-01-09T00:03:40.182Z,23.42
2024-01-09T00:06:10.230Z,18.70
2024-01-09T00:08:40.485Z,20.73
2024-01-09T00:11:10.279Z,18.98
2024-01-09T00:13:40.056Z,19.23
2024-01-09T00:16:10.124Z,23.98
2024-01-09T00:18:42.570Z,24.45
2024-01-09T00:21:12.562Z,21.60
2024-01-09T00:23:43.612Z,19.75
2024-01-09T00:26:13.674Z,22.20
2024-01-09T00:28:43.455Z,16.98
2024-01-09T00:31:13.227Z,23.67
2024-01-09T00:33:45.695Z,19.02
2024-01-09T00:36:15.677Z,20.45
2024-01-09T00:38:45.803Z,19.92
2024-01-09T00:41:15.657Z,20.35
2024-01-09T00:43:45.780Z,18.95
2024-01-09T00:46:15.647Z,17.70
2024-01-09T00:48:49.540Z,23.05
2024-01-09T00:51:19.464Z,22.90
2024-01-09T00:53:49.521Z,22.27
2024-01-09T00:56:19.495Z,18.38
2024-01-09T00:58:49.359Z,19.13
2024-01-09T01:01:19.875Z,20.58
2024-01-09T01:03:52.425Z,16.08
2024-01-09T01:06:22.303Z,18.00
2024-01-09T01:08:52.108Z,20.15
2024-01-09T01:11:21.969Z,18.13
2024-01-09T01:13:52.113Z,19.60
2024-01-09T01:16:21.964Z,23.60
2024-01-09T01:18:54.459Z,22.05
2024-01-09T01:21:24.283Z,19.05
2024-01-09T01:23:54.128Z,24.88
2024-01-09T01:26:24.360Z,19.65
2024-01-09T01:28:54.242Z,21.23
2024-01-09T01:31:24.617Z,24.48
2024-01-09T01:33:57.175Z,15.82
2024-01-09T01:36:27.388Z,20.33
2024-01-09T01:38:57.265Z,19.17
2024-01-09T01:41:27.140Z,22.98
2024-01-09T01:43:57.249Z,20.38
2024-01-09T01:46:27.261Z,27.30
2024-01-09T01:48:59.795Z,20.08
2024-01-09T01:51:29.893Z,20.70
2024-01-09T01:54:00.148Z,23.00
2024-01-09T01:56:30.103Z,19.42
2024-01-09T01:59:00.080Z,22.25
2024-01-09T02:01:29.934Z,21.90
2024-01-09T02:04:03.147Z,21.45
2024-01-09T02:06:33.469Z,21.50
2024-01-09T02:09:03.279Z,20.20
2024-01-09T02:11:33.141Z,27.45
2024-01-09T02:14:02.972Z,20.25
2024-01-09T02:16:32.766Z,26.90
2024-01-09T02:19:05.266Z,23.40
2024-01-09T02:21:35.422Z,20.38
2024-01-09T02:24:05.279Z,22.45
2024-01-09T02:26:47.259Z,22.80
2024-01-09T02:29:25.868Z,24.77
2024-01-09T02:31:58.444Z,19.05
2024-01-09T02:34:28.418Z,22.73
2024-01-09T02:36:58.228Z,21.88
2024-01-09T02:39:31.144Z,21.83
2024-01-09T02:42:00.979Z,19.70
2024-01-09T02:44:30.894Z,20.60
2024-01-09T02:47:03.340Z,23.08
2024-01-09T02:52:03.504Z,19.83
2024-01-09T02:54:33.670Z,20.73
2024-01-09T02:57:03.535Z,20.95
2024-01-09T02:59:33.349Z,22.40
2024-01-09T03:02:06.175Z,24.40
2024-01-09T03:04:36.414Z,22.13
2024-01-09T03:07:06.972Z,23.05
2024-01-09T03:09:37.286Z,21.25
2024-01-09T03:12:08.724Z,20.23
2024-01-09T03:14:39.984Z,20.57
2024-01-09T03:17:13.033Z,20.45
2024-01-09T03:19:44.552Z,26.85
2024-01-09T03:22:14.644Z,20.17
2024-01-09T03:24:44.627Z,21.80
2024-01-09T03:27:14.824Z,24.20
2024-01-09T03:29:44.692Z,23.15
2024-01-09T03:32:17.490Z,21.60
2024-01-09T03:34:47.488Z,23.92
2024-01-09T03:37:17.816Z,30.88
2024-01-09T03:39:48.570Z,25.23
2024-01-09T03:42:21.627Z,20.75
2024-01-09T03:44:51.977Z,23.70
2024-01-09T03:47:24.958Z,24.65
2024-01-09T03:49:54.903Z,22.83
2024-01-09T03:52:25.080Z,27.20
2024-01-09T03:54:55.307Z,23.15
2024-01-09T03:57:25.457Z,20.77
2024-01-09T03:59:55.506Z,21.77
2024-01-09T04:02:28.397Z,23.15
2024-01-09T04:04:58.814Z,19.77
2024-01-09T04:07:28.974Z,23.00
2024-01-09T04:09:59.529Z,22.10
2024-01-09T04:12:31.764Z,25.42
2024-01-09T04:17:34.042Z,24.17
2024-01-09T04:20:06.076Z,19.80
2024-01-09T04:22:36.082Z,22.13
2024-01-09T04:25:14.864Z,27.45
2024-01-09T04:27:47.184Z,29.08
2024-01-09T04:32:49.874Z,20.13
2024-01-09T04:35:20.189Z,24.73
2024-01-09T04:37:50.340Z,23.83
2024-01-09T04:40:20.464Z,23.92
2024-01-09T04:42:50.465Z,20.63
2024-01-09T04:45:24.034Z,23.92
2024-01-09T04:47:57.101Z,25.98
2024-01-09T04:50:30.060Z,25.17
2024-01-09T04:53:00.432Z,30.30
2024-01-09T04:55:33.882Z,27.23
2024-01-09T04:58:06.772Z,24.35
2024-01-09T05:00:37.049Z,23.60
2024-01-09T05:03:09.966Z,24.48
2024-01-09T05:05:40.304Z,25.13
2024-01-09T05:08:10.797Z,24.60
2024-01-09T05:10:40.941Z,27.10
2024-01-09T05:13:11.198Z,28.60
2024-01-09T05:15:41.425Z,18.48
2024-01-09T05:18:20.579Z,26.63
2024-01-09T05:20:50.602Z,25.75
2024-01-09T05:23:21.270Z,25.63
2024-01-09T05:25:51.558Z,25.95
2024-01-09T05:28:21.405Z,25.27
2024-01-09T05:30:51.694Z,28.08
2024-01-09T05:33:24.793Z,24.17
2024-01-09T05:35:55.070Z,27.45
2024-01-09T05:38:25.249Z,26.40
2024-01-09T05:40:55.868Z,25.23
2024-01-09T05:43:26.081Z,28.50
2024-01-09T05:45:55.904Z,25.73
2024-01-09T05:48:28.861Z,30.55
2024-01-09T05:50:58.758Z,25.60
2024-01-09T05:53:28.935Z,24.52
2024-01-09T05:56:01.998Z,25.25
2024-01-09T05:58:32.025Z,26.45
2024-01-09T06:01:05.100Z,28.42
2024-01-09T06:03:37.995Z,24.05
2024-01-09T06:06:12.787Z,31.27
2024-01-09T06:08:46.469Z,30.77
2024-01-09T06:11:16.688Z,29.95
2024-01-09T06:13:46.967Z,27.05
2024-01-09T06:16:16.991Z,25.95
2024-01-09T06:18:49.986Z,27.83
2024-01-09T06:21:19.987Z,32.30
2024-01-09T06:23:50.817Z,29.98
2024-01-09T06:26:20.876Z,33.03
2024-01-09T06:28:51.142Z,28.75
2024-01-09T06:31:20.977Z,30.02
2024-01-09T06:33:53.959Z,23.65
2024-01-09T06:36:24.043Z,31.50
2024-01-09T06:38:54.127Z,22.25
2024-01-09T06:41:24.415Z,27.90
2024-01-09T06:43:54.287Z,31.60
2024-01-09T06:46:24.136Z,27.67
2024-01-09T06:48:56.751Z,21.23
2024-01-09T06:51:27.597Z,28.55
2024-01-09T06:53:57.600Z,28.92
2024-01-09T06:56:27.883Z,30.55
2024-01-09T06:58:57.918Z,27.17
2024-01-09T07:01:28.105Z,32.45
2024-01-09T07:04:00.541Z,33.33
2024-01-09T07:06:30.752Z,22.67
2024-01-09T07:09:00.626Z,30.55
2024-01-09T07:11:30.472Z,27.50
2024-01-09T07:14:00.296Z,31.20
2024-01-09T07:16:30.785Z,33.72
2024-01-09T07:19:03.652Z,32.25
2024-01-09T07:21:33.668Z,29.00
2024-01-09T07:24:03.531Z,30.30
2024-01-09T07:26:33.865Z,31.80
2024-01-09T07:29:03.698Z,38.55
2024-01-09T07:31:33.843Z,28.75
2024-01-09T07:34:06.349Z,31.77
2024-01-09T07:36:36.494Z,41.35
2024-01-09T07:39:07.126Z,32.03
2024-01-09T07:41:37.138Z,39.97
2024-01-09T07:44:07.281Z,39.60
2024-01-09T07:46:37.651Z,32.85
2024-01-09T07:49:10.501Z,30.40
2024-01-09T07:51:40.430Z,23.25
2024-01-09T07:54:10.609Z,30.35
2024-01-09T07:56:40.464Z,33.70
2024-01-09T07:59:10.872Z,32.17
2024-01-09T08:01:40.759Z,26.35
2024-01-09T08:04:13.958Z,29.92
2024-01-09T08:06:44.636Z,40.38
2024-01-09T08:09:15.271Z,31.35
2024-01-09T08:11:45.121Z,41.45
2024-01-09T08:14:15.267Z,38.25
2024-01-09T08:16:45.292Z,28.70
2024-01-09T08:19:18.065Z,29.67
2024-01-09T08:21:47.982Z,34.33
2024-01-09T08:24:20.135Z,33.78
2024-01-09T08:26:50.884Z,34.33
2024-01-09T08:29:20.843Z,31.65
2024-01-09T08:31:51.816Z,31.20
2024-01-09T08:34:24.610Z,36.45
2024-01-09T08:36:54.597Z,36.15
2024-01-09T08:39:24.706Z,38.65
2024-01-09T08:41:55.110Z,31.95
2024-01-09T08:44:26.595Z,37.38
2024-01-09T08:46:56.816Z,41.30
2024-01-09T08:49:29.235Z,40.78
2024-01-09T08:51:59.438Z,34.25
2024-01-09T08:54:29.651Z,37.40
2024-01-09T08:56:59.535Z,39.75
2024-01-09T08:59:29.668Z,36.03
2024-01-09T09:01:59.566Z,38.88
2024-01-09T09:04:32.332Z,45.95
2024-01-09T09:07:02.234Z,45.97
2024-01-09T09:09:35.499Z,37.95
2024-01-09T09:12:05.740Z,40.40
2024-01-09T09:14:35.690Z,41.42
2024-01-09T09:17:05.657Z,43.13
2024-01-09T09:19:38.494Z,43.17
2024-01-09T09:22:08.342Z,40.22
2024-01-09T09:24:38.162Z,37.88
2024-01-09T09:27:08.880Z,52.22
2024-01-09T09:29:40.299Z,42.25
2024-01-09T09:32:11.858Z,55.40
2024-01-09T09:34:46.740Z,36.58
2024-01-09T09:37:18.547Z,40.53
2024-01-09T09:39:48.624Z,35.03
2024-01-09T09:42:18.903Z,46.90
2024-01-09T09:44:50.631Z,41.78
2024-01-09T09:47:21.157Z,42.05
2024-01-09T09:49:55.075Z,45.45
2024-01-09T09:52:23.083Z,38.05
2024-01-09T09:54:53.869Z,44.13
2024-01-09T09:57:24.159Z,40.95
2024-01-09T09:59:54.068Z,33.25
2024-01-09T10:02:27.082Z,33.75
2024-01-09T10:05:01.618Z,40.80
2024-01-09T10:07:31.803Z,37.08
2024-01-09T10:10:02.574Z,45.00
2024-01-09T10:12:32.389Z,37.50
2024-01-09T10:15:09.208Z,44.15
2024-01-09T10:17:39.936Z,35.30
2024-01-09T10:20:14.565Z,38.28
2024-01-09T10:22:44.732Z,38.50
2024-01-09T10:25:15.337Z,31.75
2024-01-09T10:27:45.191Z,41.08
2024-01-09T10:30:15.417Z,38.58
2024-01-09T10:32:46.298Z,46.90
2024-01-09T10:35:19.379Z,42.25
2024-01-09T10:37:49.342Z,46.60
2024-01-09T10:40:19.248Z,43.33
2024-01-09T10:42:50.191Z,44.92
2024-01-09T10:45:21.210Z,40.28
2024-01-09T10:47:54.465Z,39.67
2024-01-09T10:50:27.509Z,39.75
2024-01-09T10:52:57.750Z,40.13
2024-01-09T10:55:27.635Z,40.00
2024-01-09T10:57:58.219Z,46.83
2024-01-09T11:00:28.792Z,45.28
2024-01-09T11:02:58.973Z,45.15
2024-01-09T11:05:31.741Z,36.65
2024-01-09T11:08:02.570Z,42.42
2024-01-09T11:10:32.615Z,42.95
2024-01-09T11:13:03.048Z,48.55
2024-01-09T11:15:35.127Z,44.53
2024-01-09T11:18:07.320Z,47.45
2024-01-09T11:20:40.439Z,39.33
2024-01-09T11:23:10.281Z,42.05
2024-01-09T11:25:40.082Z,40.65
2024-01-09T11:28:10.535Z,43.80
2024-01-09T11:30:40.318Z,47.95
2024-01-09T11:33:28.117Z,42.08
2024-01-09T11:36:06.883Z,42.25
2024-01-09T11:38:37.296Z,44.47
2024-01-09T11:41:07.527Z,39.95
2024-01-09T11:43:52.240Z,42.88
2024-01-09T11:46:22.133Z,40.95
2024-01-09T11:48:52.317Z,43.63
2024-01-09T11:51:25.238Z,43.72
2024-01-09T11:53:55.300Z,44.00
2024-01-09T11:56:25.359Z,40.10
2024-01-09T11:58:55.532Z,39.00
2024-01-09T12:01:26.498Z,38.00
2024-01-09T12:03:56.755Z,39.97
2024-01-09T12:06:31.008Z,38.70
2024-01-09T12:09:01.905Z,39.42
2024-01-09T12:11:32.041Z,38.40
2024-01-09T12:14:02.789Z,47.03
2024-01-09T12:16:34.032Z,42.42
2024-01-09T12:19:04.475Z,38.22
2024-01-09T12:21:37.502Z,42.60
2024-01-09T12:24:21.257Z,48.55
2024-01-09T12:26:54.805Z,42.67
2024-01-09T12:29:22.601Z,42.35
2024-01-09T12:31:53.033Z,42.65
2024-01-09T12:34:23.200Z,34.78
2024-01-09T12:36:55.694Z,36.85
2024-01-09T12:42:07.867Z,32.58
2024-01-09T12:44:40.189Z,40.33
2024-01-09T12:47:10.964Z,34.30
2024-01-09T12:49:59.293Z,45.08
2024-01-09T12:52:36.950Z,36.25
2024-01-09T12:55:08.472Z,34.25
2024-01-09T12:57:38.331Z,32.97
2024-01-09T13:00:09.198Z,35.67
2024-01-09T13:02:39.325Z,41.45
2024-01-09T13:05:11.248Z,34.00
2024-01-09T13:07:43.784Z,43.20
2024-01-09T13:12:43.282Z,39.30
2024-01-09T13:15:13.909Z,39.33
2024-01-09T13:17:44.186Z,38.33
2024-01-09T13:20:14.754Z,39.35
2024-01-09T13:25:20.456Z,38.38
2024-01-09T13:27:51.418Z,42.15
2024-01-09T13:30:47.458Z,44.65
2024-01-09T13:33:11.363Z,43.72
2024-01-09T13:35:41.610Z,42.00
2024-01-09T13:38:14.634Z,42.15
2024-01-09T13:40:44.583Z,41.55
2024-01-09T13:43:14.478Z,34.65
2024-01-09T13:45:44.950Z,44.30
2024-01-09T13:48:15.139Z,42.03
2024-01-09T13:51:48.948Z,49.08
2024-01-09T13:53:38.507Z,42.33
2024-01-09T13:58:40.056Z,51.20
2024-01-09T14:01:09.968Z,42.90
2024-01-09T14:03:41.737Z,43.17
2024-01-09T14:06:11.689Z,42.55
2024-01-09T14:08:44.051Z,45.10
2024-01-09T14:11:14.011Z,39.25
2024-01-09T14:13:43.871Z,37.28
2024-01-09T14:16:13.649Z,40.10
2024-01-09T14:18:45.743Z,43.90
2024-01-09T14:21:16.538Z,45.97
2024-01-09T14:23:49.782Z,36.88
2024-01-09T14:26:22.345Z,42.15
2024-01-09T14:28:52.381Z,45.75
2024-01-09T14:31:56.125Z,40.08
2024-01-09T14:34:26.466Z,41.42
2024-01-09T14:36:56.524Z,40.20
2024-01-09T14:39:30.563Z,39.42
2024-01-09T14:42:00.915Z,34.92
2024-01-09T14:47:35.974Z,37.20
2024-01-09T14:50:06.988Z,37.90
2024-01-09T14:52:37.166Z,30.70
2024-01-09T14:55:10.150Z,38.20
2024-01-09T14:57:41.539Z,35.95
2024-01-09T15:00:12.640Z,37.05
2024-01-09T15:02:42.943Z,36.20
2024-01-09T15:05:12.901Z,37.83
2024-01-09T15:07:46.038Z,37.88
2024-01-09T15:10:18.746Z,42.47
2024-01-09T15:12:48.819Z,44.40
2024-01-09T15:15:18.854Z,40.80
2024-01-09T15:17:49.318Z,40.08
2024-01-09T15:20:19.495Z,41.80
2024-01-09T15:22:49.573Z,38.78
2024-01-09T15:25:22.012Z,33.58
2024-01-09T15:30:21.749Z,41.72
2024-01-09T15:32:51.956Z,44.25
2024-01-09T15:35:25.515Z,36.30
2024-01-09T15:37:56.618Z,44.28
2024-01-09T15:40:31.732Z,45.65
2024-01-09T15:43:03.066Z,43.22
2024-01-09T15:45:33.410Z,43.50
2024-01-09T15:48:04.242Z,39.25
2024-01-09T15:50:34.147Z,44.60
2024-01-09T15:53:06.137Z,42.05
2024-01-09T15:58:11.638Z,37.00
2024-01-09T16:00:46.770Z,50.65
2024-01-09T16:03:21.007Z,48.45
2024-01-09T16:05:51.100Z,44.58
2024-01-09T16:08:21.987Z,48.35
2024-01-09T16:10:51.886Z,46.42
2024-01-09T16:13:28.192Z,46.10
2024-01-09T16:15:58.089Z,42.40
2024-01-09T16:18:28.238Z,44.08
2024-01-09T16:20:58.160Z,45.10
2024-01-09T16:23:28.107Z,44.25
2024-01-09T16:25:58.053Z,56.90
2024-01-09T16:28:30.607Z,69.88
2024-01-09T16:31:00.560Z,64.25
2024-01-09T16:33:30.855Z,64.90
2024-01-09T16:36:00.851Z,65.07
2024-01-09T16:38:30.807Z,61.38
2024-01-09T16:41:05.540Z,52.63
2024-01-09T16:43:38.444Z,46.67
2024-01-09T16:46:10.311Z,38.97
2024-01-09T16:48:49.804Z,45.58
2024-01-09T16:51:22.651Z,46.25
2024-01-09T16:53:53.463Z,43.47
2024-01-09T16:56:24.952Z,47.78
2024-01-09T16:58:57.625Z,45.75
2024-01-09T17:01:28.656Z,39.65
2024-01-09T17:03:58.997Z,36.00
2024-01-09T17:06:29.093Z,41.40
2024-01-09T17:08:58.950Z,54.80
2024-01-09T17:11:30.644Z,44.88
2024-01-09T17:16:34.466Z,45.95
2024-01-09T17:19:04.823Z,43.75
2024-01-09T17:21:35.334Z,47.03
2024-01-09T17:24:05.595Z,52.42
2024-01-09T17:26:39.680Z,48.15
2024-01-09T17:29:09.567Z,49.38
2024-01-09T17:31:42.391Z,53.33
2024-01-09T17:34:12.610Z,45.80
2024-01-09T17:36:43.080Z,32.03
2024-01-09T17:39:15.406Z,40.15
2024-01-09T17:41:45.284Z,42.88
2024-01-09T17:44:15.168Z,41.58
2024-01-09T17:46:48.040Z,51.78
2024-01-09T17:49:17.884Z,38.25
2024-01-09T17:51:48.181Z,34.47
2024-01-09T17:54:18.033Z,39.03
2024-01-09T17:56:47.857Z,38.80
2024-01-09T17:59:17.784Z,38.05
2024-01-09T18:01:53.973Z,41.47
2024-01-09T18:04:23.872Z,42.38
2024-01-09T18:06:53.760Z,48.20
2024-01-09T18:09:27.159Z,40.70
2024-01-09T18:11:57.530Z,37.83
2024-01-09T18:14:27.533Z,41.60
2024-01-09T18:17:00.323Z,42.03
2024-01-09T18:19:30.208Z,41.33
2024-01-09T18:22:00.562Z,34.10
2024-01-09T18:24:33.707Z,34.95
2024-01-09T18:27:06.349Z,39.78
2024-01-09T18:29:37.839Z,35.15
2024-01-09T18:32:10.956Z,43.33
2024-01-09T18:34:42.677Z,51.42
2024-01-09T18:37:13.141Z,45.75
2024-01-09T18:39:43.406Z,40.15
2024-01-09T18:42:13.351Z,42.28
2024-01-09T18:44:44.387Z,46.03
2024-01-09T18:47:19.996Z,40.13
2024-01-09T18:49:50.140Z,38.83
2024-01-09T18:52:20.365Z,40.45
2024-01-09T18:54:50.473Z,42.00
2024-01-09T18:57:22.058Z,37.70
2024-01-09T18:59:52.498Z,36.70
2024-01-09T19:02:25.260Z,39.38
2024-01-09T19:04:57.266Z,56.25
2024-01-09T19:07:27.911Z,48.65
2024-01-09T19:09:58.308Z,52.17
2024-01-09T19:12:29.385Z,54.08
2024-01-09T19:14:59.679Z,47.47
2024-01-09T19:17:32.321Z,45.90
2024-01-09T19:20:02.459Z,40.20
2024-01-09T19:22:33.151Z,37.67
2024-01-09T19:25:06.172Z,36.97
2024-01-09T19:27:41.381Z,37.90
2024-01-09T19:30:11.559Z,36.85
2024-01-09T19:32:44.691Z,42.15
2024-01-09T19:35:15.607Z,39.47
2024-01-09T19:37:49.275Z,43.92
2024-01-09T19:40:19.357Z,43.33
2024-01-09T19:42:52.362Z,33.92
2024-01-09T19:45:25.044Z,45.78
2024-01-09T19:48:02.253Z,40.95
2024-01-09T19:50:32.942Z,38.15
2024-01-09T19:53:16.228Z,44.20
2024-01-09T19:55:49.027Z,40.28
2024-01-09T19:58:20.665Z,34.45
2024-01-09T20:00:50.529Z,39.63
2024-01-09T20:03:23.307Z,42.35
2024-01-09T20:05:53.284Z,39.97
2024-01-09T20:08:25.786Z,48.72
2024-01-09T20:13:25.339Z,43.67
2024-01-09T20:15:55.057Z,46.72
2024-01-09T20:18:28.103Z,45.35
2024-01-09T20:20:57.923Z,47.50
2024-01-09T20:23:27.883Z,39.28
2024-01-09T20:25:57.701Z,40.25
2024-01-09T20:28:27.751Z,42.70
2024-01-09T20:30:58.523Z,41.75
2024-01-09T20:33:31.485Z,43.53
2024-01-09T20:36:01.260Z,38.70
2024-01-09T20:38:34.343Z,42.22
2024-01-09T20:41:06.460Z,47.25
2024-01-09T20:43:38.046Z,44.60
2024-01-09T20:46:11.637Z,48.83
2024-01-09T20:48:44.456Z,45.55
2024-01-09T20:51:14.577Z,45.15
2024-01-09T20:53:44.435Z,42.30
2024-01-09T20:56:14.336Z,53.20
2024-01-09T20:58:44.960Z,45.05
2024-01-09T21:01:14.817Z,51.00
2024-01-09T21:03:47.779Z,41.60
2024-01-09T21:06:18.444Z,39.38
2024-01-09T21:08:48.250Z,38.70
2024-01-09T21:11:18.725Z,51.17
2024-01-09T21:13:48.983Z,48.28
2024-01-09T21:16:18.762Z,48.85
2024-01-09T21:18:51.656Z,45.22
2024-01-09T21:21:21.847Z,44.15
2024-01-09T21:23:52.196Z,44.60
2024-01-09T21:26:22.070Z,59.58
2024-01-09T21:28:52.209Z,44.58
2024-01-09T21:31:22.141Z,47.55
2024-01-09T21:33:55.048Z,50.60
2024-01-09T21:36:24.842Z,43.92
2024-01-09T21:38:54.583Z,49.53
2024-01-09T21:41:24.398Z,49.88
2024-01-09T21:43:54.751Z,48.15
2024-01-09T21:46:24.572Z,49.75
2024-01-09T21:48:57.246Z,48.28
2024-01-09T21:51:27.337Z,40.20
2024-01-09T21:53:58.477Z,50.85
2024-01-09T21:56:28.786Z,51.55
2024-01-09T21:59:04.888Z,39.85
2024-01-09T22:01:34.847Z,44.78
2024-01-09T22:04:08.066Z,42.75
2024-01-09T22:06:37.948Z,52.53
2024-01-09T22:09:07.752Z,49.80
2024-01-09T22:11:37.493Z,50.00
2024-01-09T22:14:07.580Z,45.67
2024-01-09T22:16:37.438Z,46.45
2024-01-09T22:19:11.124Z,48.38
2024-01-09T22:21:45.854Z,51.88
2024-01-09T22:24:16.259Z,48.95
2024-01-09T22:26:48.252Z,51.70
2024-01-09T22:29:18.389Z,51.75
2024-01-09T22:31:48.309Z,63.53
2024-01-09T22:34:21.082Z,55.63
2024-01-09T22:36:51.154Z,51.45
2024-01-09T22:39:20.960Z,54.72
2024-01-09T22:41:51.564Z,55.92
2024-01-09T22:44:21.384Z,56.25
2024-01-09T22:46:51.247Z,57.22
2024-01-09T22:49:23.798Z,53.30
2024-01-09T22:51:54.441Z,50.35
2024-01-09T22:54:24.248Z,52.55
2024-01-09T22:56:54.333Z,51.65
2024-01-09T22:59:24.487Z,53.25
2024-01-09T23:01:54.584Z,65.75
2024-01-09T23:04:41.971Z,46.17
2024-01-09T23:07:11.838Z,49.47
2024-01-09T23:09:41.950Z,52.10
2024-01-09T23:12:12.347Z,49.13
2024-01-09T23:14:42.169Z,52.92
2024-01-09T23:17:11.940Z,49.53
2024-01-09T23:19:44.645Z,52.70
2024-01-09T23:22:14.753Z,53.25
2024-01-09T23:24:44.576Z,53.95
2024-01-09T23:27:14.350Z,51.47
2024-01-09T23:29:44.108Z,55.63
2024-01-09T23:32:13.951Z,49.15
2024-01-09T23:34:53.521Z,60.33
2024-01-09T23:37:32.728Z,60.17
2024-01-09T23:40:02.669Z,58.17
2024-01-09T23:42:32.760Z,52.35
2024-01-09T23:45:02.646Z,53.55
2024-01-09T23:47:32.540Z,59.55
2024-01-09T23:50:05.766Z,64.63
2024-01-09T23:52:36.377Z,53.67
2024-01-09T23:55:07.081Z,51.25
2024-01-09T23:57:36.870Z,51.75
